Time;durP1;ratioP1;P1;durP2;ratioP2;P2;SDS_P1;SDS_P2;PMS_P1;PMS_P2;Temp;Humidity;BMP_temperature;BMP_pressure;BME280_temperature;BME280_humidity;BME280_pressure;Samples;Min_cycle;Max_cycle;Signal;HPM_P1;HPM_P2
2023/01/05 00:02:16;;;;;;;20.45;3.35;;;9.50;99.90;;;;;;4888819;29;20055;-88
2023/01/05 00:04:43;;;;;;;21.57;3.73;;;9.50;99.90;;;;;;4864785;29;20083;-88
2023/01/05 00:07:09;;;;;;;24.60;3.55;;;9.40;99.90;;;;;;4867903;29;20327;-88
2023/01/05 00:09:35;;;;;;;18.90;3.17;;;9.50;99.90;;;;;;4880673;29;20068;-89
2023/01/05 00:23:14;;;;;;;19.83;3.33;;;9.40;99.90;;;;;;4888709;29;20520;-89
2023/01/05 00:25:40;;;;;;;19.15;3.25;;;9.40;99.90;;;;;;4882169;29;20040;-88
2023/01/05 00:28:06;;;;;;;11.45;2.28;;;9.40;99.90;;;;;;4872692;29;20055;-88
2023/01/05 00:30:43;;;;;;;10.05;2.40;;;9.40;99.90;;;;;;4910394;29;20039;-88
2023/01/05 00:33:10;;;;;;;16.17;2.85;;;9.40;99.90;;;;;;4894892;29;20059;-88
2023/01/05 00:35:37;;;;;;;10.57;2.70;;;9.40;99.90;;;;;;4864594;29;20064;-88
2023/01/05 00:38:04;;;;;;;15.30;3.63;;;9.40;99.90;;;;;;4883537;29;20044;-88
2023/01/05 00:40:30;;;;;;;15.68;3.22;;;9.40;99.90;;;;;;4883262;29;20048;-88
2023/01/05 00:42:56;;;;;;;20.52;3.08;;;9.40;99.90;;;;;;4871426;29;20485;-88
2023/01/05 00:45:21;;;;;;;18.88;3.03;;;9.40;99.90;;;;;;4891433;29;20039;-88
2023/01/05 00:47:48;;;;;;;20.05;3.78;;;9.40;99.90;;;;;;4868004;29;20099;-89
2023/01/05 00:50:16;;;;;;;20.67;3.38;;;9.40;99.90;;;;;;4894359;29;20130;-89
2023/01/05 00:52:42;;;;;;;27.05;4.43;;;9.30;99.90;;;;;;4893072;29;20066;-88
2023/01/05 00:55:09;;;;;;;19.60;3.28;;;9.30;99.90;;;;;;4884205;29;20077;-88
2023/01/05 00:57:35;;;;;;;20.08;3.40;;;8.60;99.90;;;;;;4882944;29;20483;-89
2023/01/05 01:00:01;;;;;;;26.90;4.20;;;9.40;99.90;;;;;;4885067;29;20044;-88
2023/01/05 01:02:27;;;;;;;19.60;3.97;;;9.40;99.90;;;;;;4896355;29;20036;-89
2023/01/05 01:04:53;;;;;;;19.15;3.25;;;9.40;99.90;;;;;;4870114;29;20047;-89
2023/01/05 01:07:18;;;;;;;17.23;3.03;;;9.50;99.90;;;;;;4881526;29;20516;-88
2023/01/05 01:09:44;;;;;;;21.30;3.45;;;9.40;99.90;;;;;;4887099;29;20051;-88
2023/01/05 01:12:10;;;;;;;21.37;3.60;;;9.40;99.90;;;;;;4887168;29;20032;-89
2023/01/05 01:14:37;;;;;;;22.80;3.00;;;9.40;99.90;;;;;;4868912;29;20308;-89
2023/01/05 01:17:03;;;;;;;17.98;3.75;;;9.40;99.90;;;;;;4891039;29;20040;-89
2023/01/05 01:19:28;;;;;;;26.00;3.80;;;9.40;99.90;;;;;;4879995;29;20055;-88
2023/01/05 01:21:54;;;;;;;20.70;2.72;;;9.40;99.90;;;;;;4889262;29;20091;-89
2023/01/05 01:24:27;;;;;;;19.45;2.78;;;9.50;99.90;;;;;;4883073;29;20036;-88
2023/01/05 01:26:56;;;;;;;17.08;2.80;;;9.50;99.90;;;;;;4885836;29;20103;-89
2023/01/05 01:29:23;;;;;;;19.77;3.03;;;9.50;99.90;;;;;;4867886;29;20040;-89
2023/01/05 01:31:49;;;;;;;;;;;9.50;99.90;;;;;;4882437;29;20501;-89
2023/01/05 01:34:15;;;;;;;13.40;2.60;;;9.50;99.90;;;;;;4894940;29;19922;-87
2023/01/05 01:36:41;;;;;;;24.20;3.17;;;9.50;99.90;;;;;;4897624;29;20050;-89
2023/01/05 01:39:07;;;;;;;17.38;3.08;;;9.50;99.90;;;;;;4869429;29;20396;-87
2023/01/05 01:41:33;;;;;;;18.85;2.80;;;9.50;99.90;;;;;;4865972;29;20103;-87
2023/01/05 01:43:59;;;;;;;17.38;3.33;;;9.50;99.90;;;;;;4884613;29;20039;-87
2023/01/05 01:46:25;;;;;;;19.17;2.63;;;9.50;99.90;;;;;;4890502;29;20043;-88
2023/01/05 01:48:59;;;;;;;14.18;3.30;;;9.60;99.90;;;;;;4891557;29;20040;-87
2023/01/05 01:51:46;;;;;;;24.10;3.53;;;9.50;99.90;;;;;;4910776;29;20047;-87
2023/01/05 01:54:16;;;;;;;23.40;4.20;;;9.60;99.90;;;;;;4893033;29;20035;-90
2023/01/05 01:56:48;;;;;;;20.95;2.88;;;9.50;99.90;;;;;;4888141;29;20031;-87
2023/01/05 01:59:16;;;;;;;14.20;2.58;;;9.50;99.90;;;;;;4893425;29;20083;-87
2023/01/05 02:01:42;;;;;;;17.38;2.28;;;9.50;99.90;;;;;;4867609;29;20433;-87
2023/01/05 02:04:09;;;;;;;18.13;3.45;;;9.50;99.90;;;;;;4868458;29;20040;-87
2023/01/05 02:06:36;;;;;;;15.50;2.40;;;9.50;99.90;;;;;;4885562;29;20082;-87
2023/01/05 02:09:03;;;;;;;18.38;3.42;;;9.50;99.90;;;;;;4891098;29;20498;-89
2023/01/05 02:11:28;;;;;;;;;;;9.50;99.90;;;;;;4894632;29;20043;-87
2023/01/05 02:14:06;;;;;;;19.17;2.60;;;9.50;99.90;;;;;;4898602;29;19923;-88
2023/01/05 02:16:38;;;;;;;17.55;2.72;;;9.50;99.90;;;;;;4891753;29;20053;-88
2023/01/05 02:19:41;;;;;;;11.18;2.13;;;9.50;99.90;;;;;;4898204;29;20090;-88
2023/01/05 02:22:31;;;;;;;18.08;2.80;;;9.50;99.90;;;;;;4895216;29;20098;-88
2023/01/05 02:25:37;;;;;;;17.90;3.08;;;9.50;99.90;;;;;;4891419;29;20113;-87
2023/01/05 02:28:17;;;;;;;20.75;3.03;;;9.50;99.90;;;;;;4893396;29;20560;-88
2023/01/05 02:31:02;;;;;;;22.55;3.33;;;9.50;99.90;;;;;;4893690;29;20042;-88
2023/01/05 02:33:56;;;;;;;15.57;2.90;;;9.50;99.90;;;;;;4905827;29;20044;-87
2023/01/05 02:36:52;;;;;;;20.73;2.70;;;9.50;99.90;;;;;;4894250;29;20457;-88
2023/01/05 02:39:27;;;;;;;16.65;2.97;;;9.50;99.90;;;;;;4893666;29;20040;-88
2023/01/05 02:42:04;;;;;;;17.20;2.80;;;9.50;99.90;;;;;;4889135;29;20059;-88
2023/01/05 02:44:31;;;;;;;;;;;9.50;99.90;;;;;;4897307;29;20036;-88
2023/01/05 02:47:28;;;;;;;17.10;3.10;;;9.50;99.90;;;;;;4893974;29;20030;-88
2023/01/05 02:49:57;;;;;;;22.52;3.03;;;9.50;99.90;;;;;;4897450;29;20288;-89
2023/01/05 02:52:23;;;;;;;19.88;2.97;;;9.50;99.90;;;;;;4893375;29;20071;-88
2023/01/05 02:55:04;;;;;;;26.48;3.20;;;9.40;99.90;;;;;;4877683;29;20067;-88
2023/01/05 02:57:46;;;;;;;17.67;2.80;;;9.40;99.90;;;;;;4888768;29;20499;-88
2023/01/05 03:00:15;;;;;;;14.55;2.58;;;9.40;99.90;;;;;;4895145;29;20042;-88
2023/01/05 03:02:42;;;;;;;17.05;2.90;;;9.50;99.90;;;;;;4896387;29;20035;-88
2023/01/05 03:05:34;;;;;;;15.60;2.88;;;9.50;99.90;;;;;;4882453;29;20111;-88
2023/01/05 03:08:07;;;;;;;15.23;2.58;;;9.50;99.90;;;;;;4887199;29;20179;-89
2023/01/05 03:13:40;;;;;;;15.68;2.92;;;9.50;99.90;;;;;;4900820;29;20043;-89
2023/01/05 03:16:12;;;;;;;21.83;2.90;;;9.40;99.90;;;;;;4893745;29;20056;-89
2023/01/05 03:21:26;;;;;;;23.98;4.47;;;9.40;99.90;;;;;;4903317;29;20088;-89
2023/01/05 03:35:35;;;;;;;15.07;2.70;;;9.40;99.90;;;;;;4914735;29;20078;-88
2023/01/05 03:38:41;;;;;;;19.95;3.35;;;9.50;99.90;;;;;;4889422;29;20191;-89
2023/01/05 03:41:09;;;;;;;21.90;2.85;;;9.50;99.90;;;;;;4891979;29;20043;-89
2023/01/05 03:43:38;;;;;;;19.92;3.65;;;9.40;99.90;;;;;;4879417;29;20054;-90
2023/01/05 03:46:17;;;;;;;15.77;2.88;;;9.40;99.90;;;;;;4900987;29;20040;-89
2023/01/05 03:48:43;;;;;;;29.90;3.97;;;9.40;99.90;;;;;;4916827;29;20404;-89
2023/01/05 03:51:09;;;;;;;20.60;3.28;;;9.80;99.90;;;;;;4892697;29;20044;-89
2023/01/05 03:53:35;;;;;;;16.25;3.28;;;9.40;99.90;;;;;;4876612;29;20128;-89
2023/01/05 03:56:00;;;;;;;13.43;2.88;;;9.40;99.90;;;;;;4881299;29;20048;-89
2023/01/05 03:58:26;;;;;;;21.27;3.45;;;9.40;99.90;;;;;;4869018;29;20382;-88
2023/01/05 04:00:52;;;;;;;18.95;3.03;;;9.40;99.90;;;;;;4872722;29;20043;-88
2023/01/05 04:03:18;;;;;;;20.13;3.67;;;9.40;99.90;;;;;;4882029;29;20044;-90
2023/01/05 04:05:43;;;;;;;22.08;3.72;;;9.40;99.90;;;;;;4896011;29;20036;-89
2023/01/05 04:08:09;;;;;;;24.02;3.30;;;9.40;99.90;;;;;;4898306;29;20044;-88
2023/01/05 04:10:35;;;;;;;16.45;2.78;;;9.40;99.90;;;;;;4872161;29;20068;-90
2023/01/05 04:13:01;;;;;;;14.68;3.00;;;9.30;99.90;;;;;;4884566;29;20505;-90
2023/01/05 04:15:26;;;;;;;24.73;3.08;;;9.30;99.90;;;;;;4877087;29;20055;-89
2023/01/05 04:17:52;;;;;;;16.70;2.53;;;9.30;99.90;;;;;;4886337;29;20458;-89
2023/01/05 04:20:18;;;;;;;16.10;2.55;;;9.40;99.90;;;;;;4895705;29;20060;-88
2023/01/05 04:22:44;;;;;;;24.55;3.15;;;9.30;99.90;;;;;;4887213;29;20433;-89
2023/01/05 04:25:09;;;;;;;16.52;2.70;;;9.40;99.90;;;;;;4877188;29;20064;-89
2023/01/05 04:27:35;;;;;;;15.23;2.55;;;9.40;99.90;;;;;;4877189;29;20040;-89
2023/01/05 04:30:01;;;;;;;17.42;2.97;;;9.40;99.90;;;;;;4889782;29;20069;-89
2023/01/05 04:32:27;;;;;;;16.90;2.90;;;9.50;99.90;;;;;;4890782;29;20082;-89
2023/01/05 04:34:53;;;;;;;20.13;3.03;;;9.50;99.90;;;;;;4897559;29;20076;-89
2023/01/05 04:37:18;;;;;;;17.35;2.95;;;9.50;99.90;;;;;;4911527;29;20044;-89
2023/01/05 04:39:44;;;;;;;17.17;2.75;;;9.50;99.90;;;;;;4871869;29;20111;-89
2023/01/05 04:42:10;;;;;;;13.88;2.30;;;9.50;99.90;;;;;;4888092;29;20032;-89
2023/01/05 04:44:36;;;;;;;12.05;2.47;;;9.50;99.90;;;;;;4888688;29;20062;-89
2023/01/05 04:47:01;;;;;;;15.82;2.83;;;9.50;99.90;;;;;;4886042;29;20040;-89
2023/01/05 04:49:27;;;;;;;12.73;2.53;;;9.50;99.90;;;;;;4877081;29;20031;-89
2023/01/05 04:51:53;;;;;;;13.38;2.22;;;9.50;99.90;;;;;;4911708;29;20036;-89
2023/01/05 04:54:18;;;;;;;16.30;2.70;;;9.50;99.90;;;;;;4897275;29;20220;-89
2023/01/05 04:56:44;;;;;;;14.40;2.65;;;9.50;99.90;;;;;;4896943;29;20397;-90
2023/01/05 04:59:10;;;;;;;13.50;2.30;;;9.50;99.90;;;;;;4885281;29;20047;-89
2023/01/05 05:01:35;;;;;;;18.30;2.88;;;9.50;99.90;;;;;;4871123;29;20374;-89
2023/01/05 05:04:01;;;;;;;14.43;2.80;;;9.70;99.90;;;;;;4878303;29;20119;-89
2023/01/05 05:06:27;;;;;;;17.77;3.33;;;9.60;99.90;;;;;;4895024;29;20487;-90
2023/01/05 05:08:53;;;;;;;23.47;4.03;;;9.50;99.90;;;;;;4868071;29;20068;-90
2023/01/05 05:11:18;;;;;;;13.23;2.27;;;9.50;99.90;;;;;;4874499;29;20303;-90
2023/01/05 05:13:44;;;;;;;22.23;2.38;;;9.50;99.90;;;;;;4892528;29;20328;-89
2023/01/05 05:16:10;;;;;;;21.00;2.93;;;9.50;99.90;;;;;;4876724;29;20553;-90
2023/01/05 05:18:35;;;;;;;18.70;2.67;;;9.50;99.90;;;;;;4869249;29;20280;-90
2023/01/05 05:21:01;;;;;;;19.45;3.35;;;9.50;99.90;;;;;;4891805;29;20837;-89
2023/01/05 05:23:27;;;;;;;16.77;3.20;;;9.50;99.90;;;;;;4884872;29;20040;-89
2023/01/05 05:25:53;;;;;;;12.65;2.90;;;9.50;99.90;;;;;;4892465;29;20091;-89
2023/01/05 05:28:21;;;;;;;13.43;3.10;;;9.50;99.90;;;;;;4893346;29;20047;-89
2023/01/05 05:30:48;;;;;;;15.43;2.60;;;9.50;99.90;;;;;;4895765;29;20042;-89
2023/01/05 05:33:14;;;;;;;20.67;3.35;;;9.50;99.90;;;;;;4894471;29;20047;-89
2023/01/05 05:35:40;;;;;;;17.65;3.08;;;9.50;99.90;;;;;;4871615;29;20485;-90
2023/01/05 05:38:06;;;;;;;;;;;8.20;99.90;;;;;;4883671;29;20036;-90
2023/01/05 05:40:32;;;;;;;16.80;4.00;;;9.50;99.90;;;;;;4896839;29;19919;-90
2023/01/05 05:42:57;;;;;;;21.00;2.88;;;9.50;99.90;;;;;;4887133;29;20036;-90
2023/01/05 05:45:23;;;;;;;15.75;2.90;;;9.40;99.90;;;;;;4879106;29;20051;-90
2023/01/05 05:47:49;;;;;;;12.30;2.53;;;9.50;99.90;;;;;;4873880;29;20039;-89
2023/01/05 05:50:15;;;;;;;18.05;2.80;;;9.40;99.90;;;;;;4867317;29;20112;-90
2023/01/05 05:52:40;;;;;;;15.85;2.50;;;9.40;99.90;;;;;;4867473;29;20044;-90
2023/01/05 05:55:07;;;;;;;16.98;3.00;;;9.40;99.90;;;;;;4886635;29;20044;-89
2023/01/05 05:57:32;;;;;;;;;;;9.40;99.90;;;;;;4892295;29;20036;-90
2023/01/05 05:59:58;;;;;;;23.13;3.25;;;9.40;99.90;;;;;;4905624;29;19918;-89
2023/01/05 06:02:24;;;;;;;15.70;3.45;;;9.40;99.90;;;;;;4893328;29;20043;-90
2023/01/05 06:04:49;;;;;;;12.03;2.30;;;9.40;99.90;;;;;;4884950;29;20091;-90
2023/01/05 06:07:15;;;;;;;17.20;2.50;;;9.40;99.90;;;;;;4883355;29;20284;-90
2023/01/05 06:09:41;;;;;;;15.30;2.40;;;9.40;99.90;;;;;;4883195;29;20356;-89
2023/01/05 06:12:07;;;;;;;24.70;3.80;;;9.40;99.90;;;;;;4883631;29;20098;-90
2023/01/05 06:14:32;;;;;;;19.02;2.72;;;9.40;99.90;;;;;;4885587;29;20051;-89
2023/01/05 06:16:59;;;;;;;28.98;3.22;;;9.40;99.90;;;;;;4883924;29;20040;-89
2023/01/05 06:19:27;;;;;;;17.02;2.97;;;9.50;99.90;;;;;;4893601;29;20048;-89
2023/01/05 06:21:53;;;;;;;17.60;2.40;;;9.50;99.90;;;;;;4884020;29;20051;-89
2023/01/05 06:24:19;;;;;;;20.63;3.15;;;9.40;99.90;;;;;;4871442;29;20393;-90
2023/01/05 06:26:47;;;;;;;14.13;3.38;;;9.40;99.90;;;;;;4888548;29;20044;-91
2023/01/05 06:29:13;;;;;;;12.55;2.75;;;9.40;99.90;;;;;;4900931;29;20473;-87
2023/01/05 06:31:39;;;;;;;13.77;2.83;;;9.40;99.90;;;;;;4884359;29;20111;-88
2023/01/05 06:34:05;;;;;;;12.32;2.70;;;9.40;99.90;;;;;;4893013;29;20044;-89
2023/01/05 06:36:30;;;;;;;20.20;3.10;;;9.50;99.90;;;;;;4870104;29;20067;-88
2023/01/05 06:38:56;;;;;;;13.60;2.77;;;9.40;99.90;;;;;;4868328;29;20059;-88
2023/01/05 06:41:22;;;;;;;21.17;3.33;;;9.40;99.90;;;;;;4890023;29;20847;-91
2023/01/05 06:43:47;;;;;;;18.87;2.80;;;9.30;99.90;;;;;;4883992;29;20347;-89
2023/01/05 06:46:13;;;;;;;20.97;3.27;;;9.30;99.90;;;;;;4870012;29;20303;-88
2023/01/05 06:48:39;;;;;;;20.10;3.00;;;9.30;99.90;;;;;;4885096;29;20286;-87
2023/01/05 06:51:04;;;;;;;17.67;3.40;;;9.20;99.90;;;;;;4882618;29;20292;-87
2023/01/05 06:53:30;;;;;;;20.10;3.28;;;9.30;99.90;;;;;;4885020;29;20684;-88
2023/01/05 06:55:56;;;;;;;16.27;2.90;;;9.30;99.90;;;;;;4873288;29;20036;-89
2023/01/05 06:58:22;;;;;;;17.08;2.75;;;9.30;99.90;;;;;;4877084;29;20082;-89
2023/01/05 07:00:47;;;;;;;20.33;4.00;;;9.30;99.90;;;;;;4873435;29;20499;-86
2023/01/05 07:03:13;;;;;;;24.08;3.42;;;9.30;99.90;;;;;;4901493;29;20042;-88
2023/01/05 07:05:40;;;;;;;17.77;2.93;;;9.30;99.90;;;;;;4865401;29;20127;-88
2023/01/05 07:08:06;;;;;;;21.02;3.25;;;9.30;99.90;;;;;;4884737;29;20673;-88
2023/01/05 07:10:32;;;;;;;13.77;2.83;;;9.30;99.90;;;;;;4888477;29;20044;-88
2023/01/05 07:12:58;;;;;;;16.65;3.15;;;9.30;99.90;;;;;;4884550;29;20050;-89
2023/01/05 07:15:23;;;;;;;19.30;3.03;;;9.30;99.90;;;;;;4889195;29;20405;-91
2023/01/05 07:17:49;;;;;;;17.98;2.88;;;9.30;99.90;;;;;;4891027;29;20488;-89
2023/01/05 07:20:15;;;;;;;13.90;2.83;;;9.30;99.90;;;;;;4882578;29;20129;-89
2023/01/05 07:22:41;;;;;;;15.60;2.95;;;9.30;99.90;;;;;;4866457;29;20409;-89
2023/01/05 07:25:07;;;;;;;15.70;2.70;;;9.30;99.90;;;;;;4867213;29;20044;-88
2023/01/05 07:27:33;;;;;;;;;;;9.20;99.90;;;;;;4867597;29;20548;-89
2023/01/05 07:29:59;;;;;;;14.80;2.67;;;9.30;99.90;;;;;;4886972;29;20010;-89
2023/01/05 07:32:24;;;;;;;12.10;3.38;;;9.30;99.90;;;;;;4868185;29;20507;-89
2023/01/05 07:34:50;;;;;;;16.38;3.67;;;9.30;99.90;;;;;;4870153;29;20509;-89
2023/01/05 07:37:16;;;;;;;17.38;2.80;;;9.30;99.90;;;;;;4885527;29;20046;-89
2023/01/05 07:39:42;;;;;;;18.55;3.42;;;9.20;99.90;;;;;;4872602;29;20036;-89
2023/01/05 07:42:07;;;;;;;21.38;3.08;;;9.30;99.90;;;;;;4869980;29;20036;-88
2023/01/05 07:44:33;;;;;;;15.38;2.95;;;9.30;99.90;;;;;;4897020;29;20131;-88
2023/01/05 07:47:00;;;;;;;19.95;2.88;;;9.20;99.90;;;;;;4881183;29;20473;-88
2023/01/05 07:49:26;;;;;;;20.70;3.00;;;9.30;99.90;;;;;;4886639;29;20036;-89
2023/01/05 07:51:52;;;;;;;20.65;3.45;;;9.30;99.90;;;;;;4882819;29;20044;-88
2023/01/05 07:54:17;;;;;;;15.15;2.60;;;9.30;99.90;;;;;;4879243;29;20039;-88
2023/01/05 07:56:43;;;;;;;12.13;3.25;;;9.30;99.90;;;;;;4871228;29;20059;-89
2023/01/05 07:59:09;;;;;;;13.97;2.53;;;9.20;99.90;;;;;;4869598;29;20051;-89
2023/01/05 08:01:35;;;;;;;15.18;2.80;;;9.20;99.90;;;;;;4885776;29;20288;-85
2023/01/05 08:04:00;;;;;;;15.43;3.53;;;9.20;99.90;;;;;;4909599;29;20117;-84
2023/01/05 08:06:26;;;;;;;20.17;3.25;;;9.30;99.90;;;;;;4880401;29;20048;-85
2023/01/05 08:08:52;;;;;;;21.20;3.90;;;9.20;99.90;;;;;;4888797;29;20035;-85
2023/01/05 08:11:19;;;;;;;15.07;2.72;;;9.20;99.90;;;;;;4870229;29;20176;-85
2023/01/05 08:14:01;;;;;;;18.00;3.08;;;9.20;99.90;;;;;;4895786;29;20075;-84
2023/01/05 08:16:31;;;;;;;15.95;2.80;;;9.20;99.90;;;;;;4904716;29;20048;-85
2023/01/05 08:18:58;;;;;;;16.58;3.10;;;9.20;99.90;;;;;;4910158;29;20127;-85
2023/01/05 08:21:24;;;;;;;14.80;2.88;;;9.20;99.90;;;;;;4890699;29;20075;-86
2023/01/05 08:23:52;;;;;;;16.60;3.08;;;9.20;99.90;;;;;;4883648;29;20084;-85
2023/01/05 08:26:20;;;;;;;15.38;2.72;;;9.20;99.90;;;;;;4897884;29;20044;-86
2023/01/05 08:28:46;;;;;;;17.95;3.30;;;9.20;99.90;;;;;;4885067;29;20040;-86
2023/01/05 08:31:15;;;;;;;19.33;3.50;;;9.20;99.90;;;;;;4884840;29;20047;-85
2023/01/05 08:33:41;;;;;;;15.98;2.70;;;9.20;99.90;;;;;;4897111;29;20063;-84
2023/01/05 08:36:09;;;;;;;17.23;3.22;;;9.20;99.90;;;;;;4868259;29;20492;-86
2023/01/05 08:38:35;;;;;;;20.40;4.60;;;9.20;99.90;;;;;;4889852;29;20054;-85
2023/01/05 08:41:00;;;;;;;16.83;3.03;;;9.20;99.90;;;;;;4864287;29;20040;-85
2023/01/05 08:43:26;;;;;;;15.32;2.38;;;9.20;99.90;;;;;;4869190;29;20047;-85
2023/01/05 08:45:52;;;;;;;18.83;3.17;;;9.30;99.90;;;;;;4872436;29;20107;-85
2023/01/05 08:48:18;;;;;;;19.02;3.28;;;9.20;99.90;;;;;;4873672;29;20036;-86
2023/01/05 08:50:43;;;;;;;17.08;2.88;;;9.20;99.90;;;;;;4872061;29;20092;-85
2023/01/05 08:53:10;;;;;;;19.70;3.07;;;9.30;99.90;;;;;;4868081;29;20580;-85
2023/01/05 08:55:35;;;;;;;23.67;3.17;;;9.30;99.90;;;;;;4876968;29;20660;-86
2023/01/05 08:58:01;;;;;;;15.05;3.10;;;9.30;99.90;;;;;;4882353;29;20032;-86
2023/01/05 09:00:27;;;;;;;15.60;3.05;;;9.30;99.90;;;;;;4880220;29;20469;-85
2023/01/05 09:02:53;;;;;;;25.48;3.22;;;9.30;99.90;;;;;;4877953;29;20048;-84
2023/01/05 09:05:18;;;;;;;20.30;3.20;;;9.30;99.90;;;;;;4870277;29;20074;-85
2023/01/05 09:07:44;;;;;;;15.02;2.67;;;9.30;99.90;;;;;;4888264;29;20027;-85
2023/01/05 09:10:10;;;;;;;20.65;3.05;;;9.30;99.90;;;;;;4868346;29;20118;-85
2023/01/05 09:12:38;;;;;;;25.58;3.95;;;9.30;99.90;;;;;;4885461;29;20131;-85
2023/01/05 09:15:04;;;;;;;24.40;3.58;;;9.30;99.90;;;;;;4885929;29;21207;-85
2023/01/05 09:17:31;;;;;;;19.80;3.30;;;9.30;99.90;;;;;;4893991;29;20067;-85
2023/01/05 09:19:57;;;;;;;;;;;9.30;99.90;;;;;;4888024;29;20119;-84
2023/01/05 09:22:22;;;;;;;18.38;3.05;;;9.30;99.90;;;;;;4884821;29;19927;-86
2023/01/05 09:24:48;;;;;;;18.60;2.58;;;9.40;99.90;;;;;;4884234;29;20040;-86
2023/01/05 09:27:14;;;;;;;15.35;3.08;;;9.30;99.90;;;;;;4872886;29;20048;-86
2023/01/05 09:29:39;;;;;;;19.75;3.33;;;9.30;99.90;;;;;;4866659;29;20039;-85
2023/01/05 09:32:06;;;;;;;17.42;3.03;;;9.30;99.90;;;;;;4902232;29;20111;-85
2023/01/05 09:34:32;;;;;;;;;;;9.30;99.90;;;;;;4891806;29;20067;-85
2023/01/05 09:36:57;;;;;;;16.90;2.35;;;9.30;99.90;;;;;;4893354;29;19923;-85
2023/01/05 09:39:23;;;;;;;21.83;2.78;;;9.40;99.90;;;;;;4889966;29;20039;-84
2023/01/05 09:41:57;;;;;;;21.55;2.78;;;9.40;99.90;;;;;;4883458;29;20036;-85
2023/01/05 09:44:42;;;;;;;20.42;3.17;;;9.40;99.90;;;;;;4905203;29;20131;-86
2023/01/05 09:47:31;;;;;;;21.77;3.70;;;9.40;99.90;;;;;;4887628;29;20036;-87
2023/01/05 09:49:58;;;;;;;14.98;2.22;;;9.40;99.90;;;;;;4888092;29;20043;-86
2023/01/05 09:52:25;;;;;;;14.65;2.33;;;9.40;99.90;;;;;;4864570;29;20119;-85
2023/01/05 09:54:53;;;;;;;21.30;2.78;;;9.40;99.90;;;;;;4889195;29;20480;-85
2023/01/05 09:57:26;;;;;;;13.23;2.25;;;9.40;99.90;;;;;;4866885;29;20847;-85
2023/01/05 09:59:57;;;;;;;13.57;2.80;;;9.50;99.90;;;;;;4888059;29;20036;-86
2023/01/05 10:02:45;;;;;;;12.75;2.17;;;9.50;99.90;;;;;;4889049;29;20182;-85
2023/01/05 10:05:13;;;;;;;12.07;2.75;;;9.50;99.90;;;;;;4887259;29;20043;-85
2023/01/05 10:08:03;;;;;;;12.48;2.00;;;9.50;99.90;;;;;;4880477;29;20385;-84
2023/01/05 10:13:01;;;;;;;15.50;2.95;;;9.50;99.90;;;;;;4903197;29;20050;-83
2023/01/05 10:13:36;;;;;;;16.00;2.55;;;9.50;99.90;;;;;;4913009;29;20047;-85
2023/01/05 10:16:02;;;;;;;14.50;2.25;;;9.50;99.90;;;;;;4907673;29;20040;-84
2023/01/05 10:18:30;;;;;;;14.25;2.90;;;9.50;99.90;;;;;;4867185;29;20043;-84
2023/01/05 10:21:19;;;;;;;14.85;2.42;;;9.50;99.90;;;;;;4881486;29;20119;-85
2023/01/05 10:24:07;;;;;;;15.48;2.15;;;9.50;99.90;;;;;;4905751;29;20400;-85
2023/01/05 10:26:43;;;;;;;9.75;1.92;;;9.50;99.90;;;;;;4888628;29;20047;-84
2023/01/05 10:29:12;;;;;;;12.95;2.33;;;9.50;99.90;;;;;;4894627;29;20126;-84
2023/01/05 10:31:46;;;;;;;17.30;2.50;;;9.60;99.90;;;;;;4911273;29;20503;-86
2023/01/05 10:34:35;;;;;;;12.98;1.90;;;9.50;99.90;;;;;;4896631;29;20036;-85
2023/01/05 10:37:39;;;;;;;7.60;1.80;;;9.50;99.90;;;;;;4907209;29;20049;-84
2023/01/05 10:40:27;;;;;;;9.48;1.33;;;9.50;99.90;;;;;;4853706;29;20046;-84
2023/01/05 10:43:10;;;;;;;8.65;1.55;;;9.60;99.90;;;;;;4897044;29;20040;-85
2023/01/05 10:45:37;;;;;;;9.60;1.85;;;9.50;99.90;;;;;;4886892;29;20079;-85
2023/01/05 10:48:10;;;;;;;5.60;1.50;;;9.50;99.90;;;;;;4881261;29;20548;-85
2023/01/05 10:50:41;;;;;;;8.85;1.80;;;9.60;99.90;;;;;;4875727;29;20074;-85
2023/01/05 10:53:13;;;;;;;11.77;2.55;;;9.60;99.90;;;;;;4885150;29;20537;-85
2023/01/05 10:56:09;;;;;;;11.68;1.88;;;9.70;99.90;;;;;;4893304;29;20051;-85
2023/01/05 10:58:38;;;;;;;9.83;2.27;;;9.70;99.90;;;;;;4896780;29;20111;-84
2023/01/05 11:01:16;;;;;;;13.25;2.20;;;9.60;99.90;;;;;;4869181;29;20036;-84
2023/01/05 11:03:46;;;;;;;16.98;2.80;;;9.60;99.90;;;;;;4895281;29;20047;-84
2023/01/05 11:06:21;;;;;;;16.88;2.40;;;9.70;99.90;;;;;;4894446;29;20047;-85
2023/01/05 11:08:47;;;;;;;11.50;2.20;;;9.70;99.90;;;;;;4893504;29;20091;-85
2023/01/05 11:11:22;;;;;;;18.45;2.30;;;9.70;99.90;;;;;;4865415;29;20457;-85
2023/01/05 11:13:49;;;;;;;10.32;1.67;;;9.70;99.90;;;;;;4880854;29;20046;-85
2023/01/05 11:16:19;;;;;;;11.68;2.08;;;9.60;99.90;;;;;;4868309;29;20046;-86
2023/01/05 11:18:56;;;;;;;11.32;2.10;;;9.70;99.90;;;;;;4881782;29;20493;-85
2023/01/05 11:21:24;;;;;;;17.27;2.42;;;9.60;99.90;;;;;;4890150;29;20098;-85
2023/01/05 11:23:53;;;;;;;10.13;2.22;;;9.60;99.90;;;;;;4881239;29;20040;-85
2023/01/05 11:26:31;;;;;;;15.95;2.30;;;9.60;99.90;;;;;;4901023;29;20373;-85
2023/01/05 11:28:57;;;;;;;11.18;2.03;;;9.60;99.90;;;;;;4889118;29;20516;-85
2023/01/05 11:31:34;;;;;;;13.83;2.50;;;9.60;99.90;;;;;;4907527;29;20052;-85
2023/01/05 11:34:08;;;;;;;14.43;2.42;;;9.60;99.90;;;;;;4885957;29;20295;-85
2023/01/05 11:36:34;;;;;;;17.00;2.70;;;9.60;99.90;;;;;;4888075;29;20079;-85
2023/01/05 11:39:00;;;;;;;10.18;2.30;;;9.60;99.90;;;;;;4886641;29;20059;-85
2023/01/05 11:41:26;;;;;;;12.40;2.15;;;9.60;99.90;;;;;;4866575;29;20028;-85
2023/01/05 11:43:53;;;;;;;12.65;2.80;;;9.70;99.90;;;;;;4882732;29;20046;-85
2023/01/05 11:46:20;;;;;;;23.20;2.65;;;9.60;99.90;;;;;;4896771;29;20106;-85
2023/01/05 11:48:56;;;;;;;16.17;2.50;;;9.70;99.90;;;;;;4865671;29;20040;-85
2023/01/05 11:51:39;;;;;;;13.18;2.22;;;9.70;99.90;;;;;;4884369;29;20095;-85
2023/01/05 11:54:24;;;;;;;13.95;2.55;;;9.70;99.90;;;;;;4892203;29;20071;-85
2023/01/05 11:57:15;;;;;;;19.48;3.00;;;9.70;99.90;;;;;;4887179;29;20048;-85
2023/01/05 11:59:42;;;;;;;13.85;2.88;;;9.70;99.90;;;;;;4891595;29;20036;-84
2023/01/05 12:02:46;;;;;;;18.25;2.28;;;9.80;99.90;;;;;;4866015;29;20043;-84
2023/01/05 12:05:27;;;;;;;13.70;2.22;;;9.80;99.90;;;;;;4902184;29;20127;-85
2023/01/05 12:08:06;;;;;;;12.18;2.08;;;9.80;99.90;;;;;;4908824;29;20044;-85
2023/01/05 12:10:50;;;;;;;12.30;2.03;;;9.90;99.90;;;;;;4902368;29;20374;-85
2023/01/05 12:13:24;;;;;;;11.95;2.03;;;9.90;99.90;;;;;;4889235;29;20083;-85
2023/01/05 12:16:12;;;;;;;14.00;1.92;;;10.00;99.90;;;;;;4881137;29;20044;-85
2023/01/05 12:19:05;;;;;;;9.48;1.83;;;10.10;99.90;;;;;;4899122;29;20440;-85
2023/01/05 12:21:46;;;;;;;10.80;1.80;;;10.30;99.90;;;;;;4892244;29;20468;-85
2023/01/05 12:24:44;;;;;;;11.38;1.50;;;10.30;99.90;;;;;;4898918;29;20035;-85
2023/01/05 12:27:15;;;;;;;12.75;1.80;;;10.40;99.90;;;;;;4891675;29;20568;-85
2023/01/05 12:29:59;;;;;;;9.80;1.52;;;10.30;99.90;;;;;;4902995;29;20043;-85
2023/01/05 12:32:55;;;;;;;13.73;2.25;;;10.30;99.90;;;;;;4901543;29;20047;-85
2023/01/05 12:35:30;;;;;;;9.13;1.92;;;10.20;99.90;;;;;;4890496;29;20039;-86
2023/01/05 12:38:36;;;;;;;11.20;2.10;;;10.20;99.90;;;;;;4900563;29;20038;-85
2023/01/05 12:41:16;;;;;;;10.25;1.60;;;10.20;99.90;;;;;;4897706;29;20114;-85
2023/01/05 12:43:51;;;;;;;12.73;1.70;;;10.20;99.90;;;;;;4916389;29;20111;-85
2023/01/05 12:46:35;;;;;;;13.45;1.85;;;10.20;99.90;;;;;;4889295;29;20088;-85
2023/01/05 12:49:06;;;;;;;12.52;1.40;;;10.20;99.90;;;;;;4919335;29;20043;-86
2023/01/05 12:51:36;;;;;;;9.98;1.75;;;10.20;99.90;;;;;;4896298;29;20183;-85
2023/01/05 12:54:29;;;;;;;9.13;1.92;;;10.20;99.90;;;;;;4889507;29;20095;-85
2023/01/05 12:57:28;;;;;;;11.60;1.95;;;10.20;99.90;;;;;;4902671;29;20047;-85
2023/01/05 12:59:59;;;;;;;7.95;1.40;;;10.20;99.90;;;;;;4906187;29;20205;-85
2023/01/05 13:02:38;;;;;;;12.00;2.25;;;10.30;99.90;;;;;;4895640;29;20091;-85
2023/01/05 13:05:31;;;;;;;10.32;1.95;;;10.30;99.90;;;;;;4902765;29;20420;-86
2023/01/05 13:08:22;;;;;;;12.02;2.28;;;10.30;99.90;;;;;;4903138;29;20035;-85
2023/01/05 13:10:55;;;;;;;11.85;2.63;;;10.40;99.90;;;;;;4899213;29;20042;-86
2023/01/05 13:13:27;;;;;;;13.70;2.45;;;10.40;99.90;;;;;;4903795;29;20052;-88
2023/01/05 13:16:03;;;;;;;13.98;2.50;;;10.30;99.90;;;;;;4900524;29;20043;-86
2023/01/05 13:18:30;;;;;;;10.05;2.28;;;10.30;99.90;;;;;;4899856;29;20043;-86
2023/01/05 13:21:00;;;;;;;14.20;2.60;;;11.30;99.90;;;;;;4901216;29;20055;-86
2023/01/05 13:24:21;;;;;;;11.98;2.38;;;10.30;99.90;;;;;;4881937;29;20440;-86
2023/01/05 13:26:48;;;;;;;13.38;2.40;;;10.30;99.90;;;;;;4839463;29;20037;-86
2023/01/05 13:29:27;;;;;;;17.33;2.60;;;10.30;99.90;;;;;;4897546;29;20059;-86
2023/01/05 13:32:12;;;;;;;10.57;2.03;;;10.30;99.90;;;;;;4918366;29;20122;-86
2023/01/05 13:35:07;;;;;;;13.35;2.80;;;10.20;99.90;;;;;;4902612;29;20035;-86
2023/01/05 13:37:38;;;;;;;14.80;2.25;;;10.20;99.90;;;;;;4898458;29;20071;-86